createdAt,value
2023-02-12T00:00:11.801Z,1029.57
2023-02-12T00:01:11.953Z,1029.57
2023-02-12T00:02:11.779Z,1029.62
2023-02-12T00:03:11.804Z,1029.57
2023-02-12T00:04:11.774Z,1029.60
2023-02-12T00:05:11.725Z,1029.62
2023-02-12T00:06:13.585Z,1029.58
2023-02-12T00:07:11.705Z,1029.61
2023-02-12T00:08:11.740Z,1029.62
2023-02-12T00:09:13.361Z,1029.67
2023-02-12T00:10:11.702Z,1029.61
2023-02-12T00:11:11.652Z,1029.61
2023-02-12T00:12:11.643Z,1029.57
2023-02-12T00:13:11.651Z,1029.59
2023-02-12T00:14:11.713Z,1029.59
2023-02-12T00:15:11.632Z,1029.55
2023-02-12T00:16:11.671Z,1029.57
2023-02-12T00:17:11.568Z,1029.57
2023-02-12T00:18:11.558Z,1029.59
2023-02-12T00:19:11.612Z,1029.59
2023-02-12T00:20:11.520Z,1029.62
2023-02-12T00:21:12.525Z,1029.58
2023-02-12T00:22:11.513Z,1029.59
2023-02-12T00:23:11.488Z,1029.62
2023-02-12T00:24:12.019Z,1029.62
2023-02-12T00:25:11.562Z,1029.61
2023-02-12T00:26:11.460Z,1029.64
2023-02-12T00:27:11.619Z,1029.66
2023-02-12T00:28:11.478Z,1029.63
2023-02-12T00:29:11.428Z,1029.67
2023-02-12T00:30:11.466Z,1029.63
2023-02-12T00:31:11.497Z,1029.67
2023-02-12T00:32:11.408Z,1029.66
2023-02-12T00:33:11.364Z,1029.61
2023-02-12T00:34:11.514Z,1029.66
2023-02-12T00:35:11.357Z,1029.64
2023-02-12T00:36:12.395Z,1029.64
2023-02-12T00:37:11.305Z,1029.63
2023-02-12T00:38:11.994Z,1029.65
2023-02-12T00:39:11.340Z,1029.64
2023-02-12T00:40:11.300Z,1029.62
2023-02-12T00:41:11.309Z,1029.63
2023-02-12T00:42:11.255Z,1029.64
2023-02-12T00:43:11.257Z,1029.64
2023-02-12T00:44:11.266Z,1029.68
2023-02-12T00:45:11.212Z,1029.66
2023-02-12T00:46:12.374Z,1029.66
2023-02-12T00:47:11.282Z,1029.66
2023-02-12T00:48:11.199Z,1029.61
2023-02-12T00:49:11.480Z,1029.69
2023-02-12T00:50:11.229Z,1029.65
2023-02-12T00:51:11.225Z,1029.64
2023-02-12T00:52:11.815Z,1029.59
2023-02-12T00:53:11.153Z,1029.62
2023-02-12T00:54:11.137Z,1029.60
2023-02-12T00:55:11.761Z,1029.65
2023-02-12T00:56:11.163Z,1029.64
2023-02-12T00:57:11.121Z,1029.61
2023-02-12T00:58:11.819Z,1029.67
2023-02-12T00:59:11.089Z,1029.69
2023-02-12T01:00:11.001Z,1029.63
2023-02-12T01:01:11.484Z,1029.63
2023-02-12T01:02:11.020Z,1029.70
2023-02-12T01:03:11.022Z,1029.72
2023-02-12T01:04:10.984Z,1029.72
2023-02-12T01:05:11.123Z,1029.71
2023-02-12T01:06:10.990Z,1029.69
2023-02-12T01:07:11.224Z,1029.66
2023-02-12T01:08:11.026Z,1029.70
2023-02-12T01:09:10.978Z,1029.65
2023-02-12T01:10:10.883Z,1029.69
2023-02-12T01:11:10.874Z,1029.65
2023-02-12T01:12:10.937Z,1029.68
2023-02-12T01:13:11.044Z,1029.71
2023-02-12T01:14:10.992Z,1029.72
2023-02-12T01:15:10.858Z,1029.77
2023-02-12T01:16:11.073Z,1029.75
2023-02-12T01:17:10.818Z,1029.71
2023-02-12T01:18:10.817Z,1029.77
2023-02-12T01:19:10.861Z,1029.76
2023-02-12T01:20:10.812Z,1029.72
2023-02-12T01:21:10.789Z,1029.75
2023-02-12T01:22:10.728Z,1029.76
2023-02-12T01:23:10.769Z,1029.77
2023-02-12T01:24:10.749Z,1029.76
2023-02-12T01:25:10.923Z,1029.75
2023-02-12T01:26:10.885Z,1029.73
2023-02-12T01:27:11.605Z,1029.76
2023-02-12T01:28:10.698Z,1029.71
2023-02-12T01:29:10.672Z,1029.73
2023-02-12T01:30:10.660Z,1029.73
2023-02-12T01:31:10.725Z,1029.78
2023-02-12T01:32:10.669Z,1029.72
2023-02-12T01:33:10.602Z,1029.72
2023-02-12T01:34:10.821Z,1029.73
2023-02-12T01:35:10.706Z,1029.74
2023-02-12T01:36:10.583Z,1029.73
2023-02-12T01:37:10.573Z,1029.73
2023-02-12T01:38:10.624Z,1029.66
2023-02-12T01:39:10.548Z,1029.74
2023-02-12T01:40:12.083Z,1029.72
2023-02-12T01:41:10.535Z,1029.75
2023-02-12T01:42:10.544Z,1029.66
2023-02-12T01:43:10.463Z,1029.64
2023-02-12T01:44:10.688Z,1029.70
2023-02-12T01:45:10.652Z,1029.65
2023-02-12T01:46:10.588Z,1029.65
2023-02-12T01:47:11.033Z,1029.62
2023-02-12T01:48:10.449Z,1029.60
2023-02-12T01:49:10.382Z,1029.65
2023-02-12T01:50:10.480Z,1029.67
2023-02-12T01:51:10.512Z,1029.60
2023-02-12T01:52:11.257Z,1029.71
2023-02-12T01:53:11.156Z,1029.70
2023-02-12T01:54:10.330Z,1029.73
2023-02-12T01:55:10.440Z,1029.77
2023-02-12T01:56:11.112Z,1029.78
2023-02-12T01:57:10.322Z,1029.79
2023-02-12T01:58:10.353Z,1029.80
2023-02-12T01:59:10.381Z,1029.83
2023-02-12T02:00:10.255Z,1029.87
2023-02-12T02:01:10.225Z,1029.86
2023-02-12T02:02:10.271Z,1029.84
2023-02-12T02:03:10.323Z,1029.89
2023-02-12T02:04:10.295Z,1029.88
2023-02-12T02:05:10.957Z,1029.81
2023-02-12T02:06:11.278Z,1029.85
2023-02-12T02:07:10.158Z,1029.79
2023-02-12T02:08:10.203Z,1029.77
2023-02-12T02:09:10.233Z,1029.77
2023-02-12T02:10:10.200Z,1029.76
2023-02-12T02:11:10.143Z,1029.80
2023-02-12T02:12:10.138Z,1029.77
2023-02-12T02:13:10.086Z,1029.80
2023-02-12T02:14:10.072Z,1029.81
2023-02-12T02:15:10.066Z,1029.84
2023-02-12T02:16:11.018Z,1029.84
2023-02-12T02:17:10.061Z,1029.83
2023-02-12T02:18:10.187Z,1029.88
2023-02-12T02:19:10.027Z,1029.88
2023-02-12T02:20:10.026Z,1029.83
2023-02-12T02:21:10.063Z,1029.84
2023-02-12T02:22:09.963Z,1029.85
2023-02-12T02:23:09.945Z,1029.81
2023-02-12T02:24:09.966Z,1029.79
2023-02-12T02:25:10.076Z,1029.82
2023-02-12T02:26:09.969Z,1029.78
2023-02-12T02:27:10.780Z,1029.76
2023-02-12T02:28:10.297Z,1029.75
2023-02-12T02:29:09.877Z,1029.77
2023-02-12T02:30:09.885Z,1029.78
2023-02-12T02:31:10.180Z,1029.76
2023-02-12T02:32:10.016Z,1029.79
2023-02-12T02:33:09.943Z,1029.76
2023-02-12T02:34:10.085Z,1029.75
2023-02-12T02:35:09.800Z,1029.79
2023-02-12T02:36:09.801Z,1029.85
2023-02-12T02:37:10.668Z,1029.80
2023-02-12T02:38:09.818Z,1029.77
2023-02-12T02:39:10.006Z,1029.80
2023-02-12T02:40:09.744Z,1029.74
2023-02-12T02:41:09.746Z,1029.78
2023-02-12T02:42:09.707Z,1029.79
2023-02-12T02:43:10.446Z,1029.80
2023-02-12T02:44:09.788Z,1029.79
2023-02-12T02:45:09.692Z,1029.80
2023-02-12T02:46:09.669Z,1029.80
2023-02-12T02:47:09.707Z,1029.81
2023-02-12T02:48:09.731Z,1029.82
2023-02-12T02:49:09.662Z,1029.79
2023-02-12T02:50:10.136Z,1029.81
2023-02-12T02:51:09.583Z,1029.84
2023-02-12T02:52:09.730Z,1029.84
2023-02-12T02:53:09.600Z,1029.86
2023-02-12T02:54:10.485Z,1029.82
2023-02-12T02:55:09.677Z,1029.81
2023-02-12T02:56:09.587Z,1029.80
2023-02-12T02:57:09.562Z,1029.79
2023-02-12T02:58:09.544Z,1029.85
2023-02-12T02:59:09.647Z,1029.83
2023-02-12T03:00:10.429Z,1029.85
2023-02-12T03:01:09.605Z,1029.86
2023-02-12T03:02:09.460Z,1029.89
2023-02-12T03:03:09.505Z,1029.90
2023-02-12T03:04:09.493Z,1029.88
2023-02-12T03:05:09.572Z,1029.88
2023-02-12T03:06:09.420Z,1029.85
2023-02-12T03:07:09.443Z,1029.88
2023-02-12T03:08:10.602Z,1029.89
2023-02-12T03:09:09.465Z,1029.92
2023-02-12T03:10:09.704Z,1029.95
2023-02-12T03:11:09.330Z,1029.98
2023-02-12T03:12:09.332Z,1030.00
2023-02-12T03:13:09.331Z,1030.03
2023-02-12T03:14:09.351Z,1030.01
2023-02-12T03:15:10.444Z,1030.03
2023-02-12T03:16:09.483Z,1030.07
2023-02-12T03:17:09.277Z,1030.08
2023-02-12T03:18:09.281Z,1030.09
2023-02-12T03:19:09.265Z,1030.09
2023-02-12T03:20:09.213Z,1030.15
2023-02-12T03:21:09.706Z,1030.13
2023-02-12T03:22:10.288Z,1030.16
2023-02-12T03:23:09.212Z,1030.14
2023-02-12T03:24:09.219Z,1030.15
2023-02-12T03:25:09.209Z,1030.16
2023-02-12T03:26:09.176Z,1030.16
2023-02-12T03:27:09.156Z,1030.16
2023-02-12T03:28:09.200Z,1030.18
2023-02-12T03:29:10.125Z,1030.18
2023-02-12T03:30:09.278Z,1030.15
2023-02-12T03:31:09.284Z,1030.19
2023-02-12T03:32:09.058Z,1030.19
2023-02-12T03:33:09.094Z,1030.20
2023-02-12T03:34:10.087Z,1030.20
2023-02-12T03:35:09.142Z,1030.24
2023-02-12T03:36:09.028Z,1030.20
2023-02-12T03:37:09.660Z,1030.23
2023-02-12T03:38:09.021Z,1030.23
2023-02-12T03:39:09.014Z,1030.24
2023-02-12T03:40:08.970Z,1030.25
2023-02-12T03:41:09.064Z,1030.29
2023-02-12T03:42:08.980Z,1030.28
2023-02-12T03:43:08.933Z,1030.28
2023-02-12T03:44:09.725Z,1030.31
2023-02-12T03:45:09.071Z,1030.27
2023-02-12T03:46:09.000Z,1030.29
2023-02-12T03:47:09.941Z,1030.35
2023-02-12T03:48:08.894Z,1030.34
2023-02-12T03:49:08.864Z,1030.33
2023-02-12T03:50:08.831Z,1030.36
2023-02-12T03:51:08.982Z,1030.39
2023-02-12T03:52:08.886Z,1030.39
2023-02-12T03:53:08.833Z,1030.36
2023-02-12T03:54:08.813Z,1030.41
2023-02-12T03:55:09.712Z,1030.38
2023-02-12T03:56:08.903Z,1030.43
2023-02-12T03:57:08.742Z,1030.42
2023-02-12T03:58:08.761Z,1030.40
2023-02-12T03:59:08.841Z,1030.43
2023-02-12T04:00:09.717Z,1030.45
2023-02-12T04:01:08.829Z,1030.44
2023-02-12T04:02:08.741Z,1030.44
2023-02-12T04:03:08.711Z,1030.45
2023-02-12T04:04:08.777Z,1030.53
2023-02-12T04:05:08.622Z,1030.53
2023-02-12T04:06:09.641Z,1030.54
2023-02-12T04:07:08.719Z,1030.51
2023-02-12T04:08:08.619Z,1030.54
2023-02-12T04:09:08.579Z,1030.48
2023-02-12T04:10:08.650Z,1030.53
2023-02-12T04:11:08.666Z,1030.57
2023-02-12T04:12:08.643Z,1030.56
2023-02-12T04:13:09.507Z,1030.56
2023-02-12T04:14:08.525Z,1030.55
2023-02-12T04:15:08.852Z,1030.60
2023-02-12T04:16:08.588Z,1030.56
2023-02-12T04:17:08.564Z,1030.55
2023-02-12T04:18:08.534Z,1030.59
2023-02-12T04:19:08.481Z,1030.58
2023-02-12T04:20:08.481Z,1030.61
2023-02-12T04:21:08.438Z,1030.59
2023-02-12T04:22:08.452Z,1030.64
2023-02-12T04:23:08.414Z,1030.63
2023-02-12T04:24:08.623Z,1030.68
2023-02-12T04:25:09.224Z,1030.61
2023-02-12T04:26:09.274Z,1030.65
2023-02-12T04:27:08.362Z,1030.66
2023-02-12T04:28:08.815Z,1030.67
2023-02-12T04:29:08.318Z,1030.68
2023-02-12T04:30:08.322Z,1030.67
2023-02-12T04:31:08.448Z,1030.68
2023-02-12T04:32:08.296Z,1030.67
2023-02-12T04:33:08.348Z,1030.69
2023-02-12T04:34:08.372Z,1030.61
2023-02-12T04:35:08.340Z,1030.67
2023-02-12T04:36:08.240Z,1030.65
2023-02-12T04:37:08.240Z,1030.66
2023-02-12T04:38:08.289Z,1030.63
2023-02-12T04:39:08.251Z,1030.66
2023-02-12T04:40:08.205Z,1030.64
2023-02-12T04:41:09.358Z,1030.63
2023-02-12T04:42:08.261Z,1030.68
2023-02-12T04:43:08.257Z,1030.62
2023-02-12T04:44:09.070Z,1030.62
2023-02-12T04:45:08.982Z,1030.70
2023-02-12T04:46:08.186Z,1030.67
2023-02-12T04:47:08.116Z,1030.68
2023-02-12T04:48:08.105Z,1030.68
2023-02-12T04:49:08.071Z,1030.71
2023-02-12T04:50:09.076Z,1030.66
2023-02-12T04:51:08.075Z,1030.66
2023-02-12T04:52:08.154Z,1030.70
2023-02-12T04:53:08.169Z,1030.74
2023-02-12T04:54:08.152Z,1030.74
2023-02-12T04:55:07.999Z,1030.73
2023-02-12T04:56:08.003Z,1030.75
2023-02-12T04:57:08.856Z,1030.75
2023-02-12T04:58:08.242Z,1030.73
2023-02-12T04:59:08.100Z,1030.75
2023-02-12T05:00:07.967Z,1030.74
2023-02-12T05:01:07.992Z,1030.83
2023-02-12T05:02:07.921Z,1030.78
2023-02-12T05:03:07.950Z,1030.73
2023-02-12T05:04:07.939Z,1030.73
2023-02-12T05:05:08.143Z,1030.73
2023-02-12T05:06:08.113Z,1030.76
2023-02-12T05:07:07.835Z,1030.78
2023-02-12T05:08:07.857Z,1030.73
2023-02-12T05:09:07.828Z,1030.73
2023-02-12T05:10:08.310Z,1030.74
2023-02-12T05:11:07.821Z,1030.73
2023-02-12T05:12:07.977Z,1030.78
2023-02-12T05:13:07.855Z,1030.73
2023-02-12T05:14:08.757Z,1030.76
2023-02-12T05:15:07.920Z,1030.77
2023-02-12T05:16:07.861Z,1030.78
2023-02-12T05:17:08.169Z,1030.78
2023-02-12T05:18:07.709Z,1030.80
2023-02-12T05:19:07.788Z,1030.77
2023-02-12T05:20:07.707Z,1030.75
2023-02-12T05:21:07.688Z,1030.81
2023-02-12T05:22:07.659Z,1030.84
2023-02-12T05:23:08.910Z,1030.83
2023-02-12T05:24:07.656Z,1030.80
2023-02-12T05:25:07.634Z,1030.84
2023-02-12T05:26:08.166Z,1030.84
2023-02-12T05:27:07.619Z,1030.88
2023-02-12T05:28:07.807Z,1030.86
2023-02-12T05:29:08.519Z,1030.89
2023-02-12T05:30:07.552Z,1030.83
2023-02-12T05:31:07.685Z,1030.87
2023-02-12T05:32:08.715Z,1030.84
2023-02-12T05:33:07.523Z,1030.88
2023-02-12T05:34:07.544Z,1030.90
2023-02-12T05:35:08.295Z,1030.89
2023-02-12T05:36:07.519Z,1030.89
2023-02-12T05:37:08.591Z,1030.91
2023-02-12T05:38:07.504Z,1030.94
2023-02-12T05:39:07.489Z,1030.94
2023-02-12T05:40:07.475Z,1030.98
2023-02-12T05:41:07.445Z,1030.94
2023-02-12T05:42:08.061Z,1030.94
2023-02-12T05:43:08.533Z,1031.00
2023-02-12T05:44:07.404Z,1030.98
2023-02-12T05:45:07.541Z,1031.00
2023-02-12T05:46:07.422Z,1031.01
2023-02-12T05:47:07.432Z,1030.98
2023-02-12T05:48:07.372Z,1030.96
2023-02-12T05:49:07.361Z,1030.97
2023-02-12T05:50:08.128Z,1031.01
2023-02-12T05:51:07.319Z,1030.96
2023-02-12T05:52:07.309Z,1031.00
2023-02-12T05:53:07.254Z,1031.00
2023-02-12T05:54:07.834Z,1031.03
2023-02-12T05:55:07.322Z,1031.03
2023-02-12T05:56:07.440Z,1031.01
2023-02-12T05:57:07.288Z,1031.04
2023-02-12T05:58:07.176Z,1031.04
2023-02-12T05:59:07.176Z,1031.04
2023-02-12T06:00:07.190Z,1031.03
2023-02-12T06:01:07.177Z,1031.07
2023-02-12T06:02:07.249Z,1031.02
2023-02-12T06:03:07.162Z,1031.03
2023-02-12T06:04:07.146Z,1031.06
2023-02-12T06:05:07.090Z,1031.08
2023-02-12T06:06:08.102Z,1031.05
2023-02-12T06:07:07.095Z,1031.04
2023-02-12T06:08:08.170Z,1031.04
2023-02-12T06:09:07.054Z,1031.04
2023-02-12T06:10:08.033Z,1031.06
2023-02-12T06:11:07.029Z,1031.06
2023-02-12T06:12:07.224Z,1031.05
2023-02-12T06:13:07.037Z,1031.06
2023-02-12T06:14:07.029Z,1031.06
2023-02-12T06:15:07.003Z,1031.05
2023-02-12T06:16:07.156Z,1031.09
2023-02-12T06:17:06.986Z,1031.04
2023-02-12T06:18:07.617Z,1031.08
2023-02-12T06:19:06.990Z,1031.06
2023-02-12T06:20:06.975Z,1031.09
2023-02-12T06:21:07.944Z,1031.07
2023-02-12T06:22:07.028Z,1031.06
2023-02-12T06:23:07.862Z,1031.11
2023-02-12T06:24:06.921Z,1031.05
2023-02-12T06:25:06.865Z,1031.10
2023-02-12T06:26:06.824Z,1031.11
2023-02-12T06:27:07.894Z,1031.12
2023-02-12T06:28:06.904Z,1031.13
2023-02-12T06:29:06.807Z,1031.14
2023-02-12T06:30:06.825Z,1031.16
2023-02-12T06:31:06.926Z,1031.12
2023-02-12T06:32:06.942Z,1031.19
2023-02-12T06:33:06.746Z,1031.17
2023-02-12T06:34:06.769Z,1031.21
2023-02-12T06:35:06.717Z,1031.20
2023-02-12T06:36:06.852Z,1031.21
2023-02-12T06:37:06.706Z,1031.21
2023-02-12T06:38:06.708Z,1031.23
2023-02-12T06:39:06.682Z,1031.22
2023-02-12T06:40:06.684Z,1031.23
2023-02-12T06:41:06.690Z,1031.22
2023-02-12T06:42:06.624Z,1031.27
2023-02-12T06:43:06.622Z,1031.26
2023-02-12T06:44:06.647Z,1031.23
2023-02-12T06:45:06.651Z,1031.27
2023-02-12T06:46:06.597Z,1031.31
2023-02-12T06:47:06.607Z,1031.33
2023-02-12T06:48:06.622Z,1031.33
2023-02-12T06:49:06.572Z,1031.42
2023-02-12T06:50:06.532Z,1031.41
2023-02-12T06:51:06.516Z,1031.40
2023-02-12T06:52:06.551Z,1031.46
2023-02-12T06:53:06.517Z,1031.48
2023-02-12T06:54:06.474Z,1031.46
2023-02-12T06:55:06.484Z,1031.47
2023-02-12T06:56:06.522Z,1031.48
2023-02-12T06:57:06.462Z,1031.46
2023-02-12T06:58:06.460Z,1031.50
2023-02-12T06:59:06.408Z,1031.47
2023-02-12T07:00:06.457Z,1031.51
2023-02-12T07:01:06.450Z,1031.49
2023-02-12T07:02:06.368Z,1031.50
2023-02-12T07:03:06.370Z,1031.54
2023-02-12T07:04:06.439Z,1031.56
2023-02-12T07:05:06.339Z,1031.53
2023-02-12T07:06:06.412Z,1031.57
2023-02-12T07:07:06.312Z,1031.61
2023-02-12T07:08:06.292Z,1031.53
2023-02-12T07:09:06.365Z,1031.57
2023-02-12T07:10:06.290Z,1031.54
2023-02-12T07:11:07.249Z,1031.55
2023-02-12T07:12:06.237Z,1031.53
2023-02-12T07:13:06.272Z,1031.49
2023-02-12T07:14:06.261Z,1031.48
2023-02-12T07:15:06.213Z,1031.54
2023-02-12T07:16:06.260Z,1031.52
2023-02-12T07:17:06.194Z,1031.50
2023-02-12T07:18:06.155Z,1031.54
2023-02-12T07:19:06.151Z,1031.57
2023-02-12T07:20:06.135Z,1031.57
2023-02-12T07:21:06.187Z,1031.58
2023-02-12T07:22:06.169Z,1031.59
2023-02-12T07:23:06.129Z,1031.60
2023-02-12T07:24:06.120Z,1031.61
2023-02-12T07:25:06.217Z,1031.58
2023-02-12T07:26:06.140Z,1031.59
2023-02-12T07:27:06.076Z,1031.56
2023-02-12T07:28:06.153Z,1031.59
2023-02-12T07:29:06.157Z,1031.62
2023-02-12T07:30:06.051Z,1031.58
2023-02-12T07:31:06.228Z,1031.63
2023-02-12T07:32:06.097Z,1031.63
2023-02-12T07:33:05.974Z,1031.66
2023-02-12T07:34:05.954Z,1031.69
2023-02-12T07:35:05.938Z,1031.66
2023-02-12T07:36:06.124Z,1031.65
2023-02-12T07:37:05.932Z,1031.70
2023-02-12T07:38:06.027Z,1031.70
2023-02-12T07:39:05.915Z,1031.70
2023-02-12T07:40:05.987Z,1031.70
2023-02-12T07:41:07.693Z,1031.74
2023-02-12T07:42:05.856Z,1031.73
2023-02-12T07:43:05.964Z,1031.71
2023-02-12T07:44:05.978Z,1031.75
2023-02-12T07:45:05.827Z,1031.72
2023-02-12T07:46:06.030Z,1031.74
2023-02-12T07:47:05.826Z,1031.78
2023-02-12T07:48:06.775Z,1031.77
2023-02-12T07:49:05.834Z,1031.79
2023-02-12T07:50:05.815Z,1031.76
2023-02-12T07:51:05.759Z,1031.76
2023-02-12T07:52:05.785Z,1031.81
2023-02-12T07:53:05.846Z,1031.76
2023-02-12T07:54:05.722Z,1031.77
2023-02-12T07:55:05.699Z,1031.80
2023-02-12T07:56:05.693Z,1031.80
2023-02-12T07:57:05.663Z,1031.81
2023-02-12T07:58:05.729Z,1031.82
2023-02-12T07:59:05.656Z,1031.84
2023-02-12T08:00:05.622Z,1031.81
2023-02-12T08:01:05.619Z,1031.85
2023-02-12T08:02:05.697Z,1031.85
2023-02-12T08:03:05.608Z,1031.83
2023-02-12T08:04:05.710Z,1031.86
2023-02-12T08:05:05.589Z,1031.85
2023-02-12T08:06:05.537Z,1031.84
2023-02-12T08:07:05.588Z,1031.83
2023-02-12T08:08:05.709Z,1031.80
2023-02-12T08:09:05.536Z,1031.83
2023-02-12T08:10:05.560Z,1031.83
2023-02-12T08:11:05.565Z,1031.85
2023-02-12T08:12:05.493Z,1031.85
2023-02-12T08:13:05.477Z,1031.86
2023-02-12T08:14:05.512Z,1031.86
2023-02-12T08:15:05.458Z,1031.89
2023-02-12T08:16:05.538Z,1031.82
2023-02-12T08:17:05.420Z,1031.87
2023-02-12T08:18:05.511Z,1031.85
2023-02-12T08:19:16.918Z,1031.89
2023-02-12T08:20:06.412Z,1031.90
2023-02-12T08:21:05.361Z,1031.93
2023-02-12T08:22:05.384Z,1031.91
2023-02-12T08:23:05.350Z,1031.90
2023-02-12T08:24:05.312Z,1031.92
2023-02-12T08:25:05.351Z,1031.91
2023-02-12T08:26:05.313Z,1031.93
2023-02-12T08:27:05.276Z,1031.92
2023-02-12T08:28:05.322Z,1031.97
2023-02-12T08:29:05.292Z,1031.99
2023-02-12T08:30:05.298Z,1031.99
2023-02-12T08:31:05.232Z,1032.05
2023-02-12T08:32:05.273Z,1032.06
2023-02-12T08:33:05.205Z,1032.08
2023-02-12T08:34:05.205Z,1032.03
2023-02-12T08:35:05.266Z,1032.10
2023-02-12T08:36:05.153Z,1032.08
2023-02-12T08:37:05.157Z,1032.12
2023-02-12T08:38:05.132Z,1032.12
2023-02-12T08:39:05.164Z,1032.12
2023-02-12T08:40:05.159Z,1032.12
2023-02-12T08:41:05.184Z,1032.15
2023-02-12T08:42:05.114Z,1032.13
2023-02-12T08:43:05.340Z,1032.14
2023-02-12T08:44:05.054Z,1032.20
2023-02-12T08:45:05.065Z,1032.13
2023-02-12T08:46:05.073Z,1032.15
2023-02-12T08:47:05.048Z,1032.18
2023-02-12T08:48:05.003Z,1032.18
2023-02-12T08:49:05.006Z,1032.19
2023-02-12T08:50:04.982Z,1032.21
2023-02-12T08:51:04.989Z,1032.21
2023-02-12T08:52:04.959Z,1032.27
2023-02-12T08:53:04.936Z,1032.28
2023-02-12T08:54:04.941Z,1032.28
2023-02-12T08:55:04.997Z,1032.34
2023-02-12T08:56:04.992Z,1032.34
2023-02-12T08:57:04.932Z,1032.29
2023-02-12T08:58:04.874Z,1032.30
2023-02-12T08:59:04.883Z,1032.29
2023-02-12T09:00:04.998Z,1032.32
2023-02-12T09:01:04.918Z,1032.34
2023-02-12T09:02:04.860Z,1032.34
2023-02-12T09:03:04.841Z,1032.40
2023-02-12T09:04:04.809Z,1032.40
2023-02-12T09:05:05.511Z,1032.38
2023-02-12T09:06:04.845Z,1032.34
2023-02-12T09:07:04.840Z,1032.43
2023-02-12T09:08:04.747Z,1032.43
2023-02-12T09:09:04.733Z,1032.44
2023-02-12T09:10:04.724Z,1032.44
2023-02-12T09:11:04.724Z,1032.41
2023-02-12T09:12:04.721Z,1032.43
2023-02-12T09:13:04.710Z,1032.45
2023-02-12T09:14:04.692Z,1032.49
2023-02-12T09:15:04.682Z,1032.44
2023-02-12T09:16:04.661Z,1032.48
2023-02-12T09:17:04.693Z,1032.48
2023-02-12T09:18:05.812Z,1032.49
2023-02-12T09:19:04.646Z,1032.47
2023-02-12T09:20:04.596Z,1032.55
2023-02-12T09:21:04.637Z,1032.53
2023-02-12T09:22:04.598Z,1032.47
2023-02-12T09:23:04.586Z,1032.52
2023-02-12T09:24:04.568Z,1032.52
2023-02-12T09:25:04.632Z,1032.50
2023-02-12T09:26:04.549Z,1032.52
2023-02-12T09:27:04.540Z,1032.50
2023-02-12T09:28:04.542Z,1032.49
2023-02-12T09:29:04.542Z,1032.49
2023-02-12T09:30:04.463Z,1032.49
2023-02-12T09:31:04.623Z,1032.49
2023-02-12T09:32:04.565Z,1032.49
2023-02-12T09:33:04.456Z,1032.55
2023-02-12T09:34:04.417Z,1032.59
2023-02-12T09:35:04.433Z,1032.61
2023-02-12T09:36:04.399Z,1032.58
2023-02-12T09:37:04.435Z,1032.66
2023-02-12T09:38:04.452Z,1032.66
2023-02-12T09:39:04.385Z,1032.70
2023-02-12T09:40:04.453Z,1032.67
2023-02-12T09:41:04.411Z,1032.69
2023-02-12T09:42:04.354Z,1032.70
2023-02-12T09:43:04.319Z,1032.67
2023-02-12T09:44:04.294Z,1032.72
2023-02-12T09:45:04.319Z,1032.70
2023-02-12T09:46:09.668Z,1032.69
2023-02-12T09:47:04.249Z,1032.74
2023-02-12T09:48:04.285Z,1032.72
2023-02-12T09:49:04.282Z,1032.70
2023-02-12T09:50:04.260Z,1032.71
2023-02-12T09:51:04.232Z,1032.72
2023-02-12T09:52:04.313Z,1032.71
2023-02-12T09:53:04.208Z,1032.70
2023-02-12T09:54:04.189Z,1032.80
2023-02-12T09:55:04.179Z,1032.83
2023-02-12T09:56:04.171Z,1032.82
2023-02-12T09:57:04.197Z,1032.82
2023-02-12T09:58:04.514Z,1032.82
2023-02-12T09:59:04.946Z,1032.81
2023-02-12T10:00:04.147Z,1032.83
2023-02-12T10:01:04.145Z,1032.79
2023-02-12T10:02:04.092Z,1032.82
2023-02-12T10:03:05.647Z,1032.85
2023-02-12T10:04:04.108Z,1032.83
2023-02-12T10:05:04.136Z,1032.87
2023-02-12T10:06:04.047Z,1032.81
2023-02-12T10:07:04.044Z,1032.87
2023-02-12T10:08:04.023Z,1032.83
2023-02-12T10:09:03.995Z,1032.84
2023-02-12T10:10:06.906Z,1032.83
2023-02-12T10:11:03.961Z,1032.82
2023-02-12T10:12:03.948Z,1032.84
2023-02-12T10:13:04.012Z,1032.84
2023-02-12T10:14:03.914Z,1032.79
2023-02-12T10:15:03.974Z,1032.81
2023-02-12T10:16:03.930Z,1032.81
2023-02-12T10:17:26.356Z,1032.83
2023-02-12T10:18:03.859Z,1032.86
2023-02-12T10:19:03.890Z,1032.83
2023-02-12T10:20:03.884Z,1032.87
2023-02-12T10:21:04.018Z,1032.84
2023-02-12T10:22:03.826Z,1032.87
2023-02-12T10:23:03.949Z,1032.85
2023-02-12T10:24:03.860Z,1032.84
2023-02-12T10:25:03.779Z,1032.84
2023-02-12T10:26:03.790Z,1032.83
2023-02-12T10:27:03.796Z,1032.85
2023-02-12T10:28:03.766Z,1032.81
2023-02-12T10:29:03.719Z,1032.81
2023-02-12T10:30:03.777Z,1032.82
2023-02-12T10:31:03.852Z,1032.77
2023-02-12T10:32:03.709Z,1032.79
2023-02-12T10:33:03.664Z,1032.81
2023-02-12T10:34:03.649Z,1032.78
2023-02-12T10:35:04.119Z,1032.82
2023-02-12T10:36:03.627Z,1032.81
2023-02-12T10:37:03.625Z,1032.81
2023-02-12T10:38:03.635Z,1032.79
2023-02-12T10:39:03.590Z,1032.79
2023-02-12T10:40:04.070Z,1032.80
2023-02-12T10:41:03.627Z,1032.82
2023-02-12T10:42:03.553Z,1032.84
2023-02-12T10:43:03.557Z,1032.84
2023-02-12T10:44:03.580Z,1032.81
2023-02-12T10:45:03.616Z,1032.85
2023-02-12T10:46:03.545Z,1032.86
2023-02-12T10:47:03.486Z,1032.83
2023-02-12T10:48:03.469Z,1032.82
2023-02-12T10:49:03.491Z,1032.86
2023-02-12T10:50:03.885Z,1032.80
2023-02-12T10:51:03.424Z,1032.81
2023-02-12T10:52:03.416Z,1032.83
2023-02-12T10:53:03.483Z,1032.88
2023-02-12T10:54:05.355Z,1032.89
2023-02-12T10:55:03.578Z,1032.90
2023-02-12T10:56:03.379Z,1032.89
2023-02-12T10:57:03.379Z,1032.88
2023-02-12T10:58:03.363Z,1032.90
2023-02-12T10:59:03.381Z,1032.95
2023-02-12T11:00:03.395Z,1032.91
2023-02-12T11:01:03.567Z,1032.86
2023-02-12T11:02:03.533Z,1032.91
2023-02-12T11:03:03.341Z,1032.91
2023-02-12T11:04:03.250Z,1032.92
2023-02-12T11:05:03.537Z,1032.87
2023-02-12T11:06:05.001Z,1032.87
2023-02-12T11:07:03.205Z,1032.91
2023-02-12T11:08:03.200Z,1032.90
2023-02-12T11:09:03.401Z,1032.87
2023-02-12T11:10:03.492Z,1032.91
2023-02-12T11:11:03.266Z,1032.87
2023-02-12T11:12:03.216Z,1032.86
2023-02-12T11:13:03.455Z,1032.81
2023-02-12T11:14:03.122Z,1032.88
2023-02-12T11:15:04.302Z,1032.85
2023-02-12T11:16:03.491Z,1032.86
2023-02-12T11:17:03.141Z,1032.84
2023-02-12T11:18:05.322Z,1032.83
2023-02-12T11:19:03.081Z,1032.81
2023-02-12T11:20:03.065Z,1032.79
2023-02-12T11:21:03.044Z,1032.77
2023-02-12T11:22:03.066Z,1032.79
2023-02-12T11:23:03.056Z,1032.82
2023-02-12T11:24:04.883Z,1032.79
2023-02-12T11:25:03.873Z,1032.74
2023-02-12T11:26:02.963Z,1032.72
2023-02-12T11:27:03.352Z,1032.73
2023-02-12T11:28:03.090Z,1032.75
2023-02-12T11:29:03.004Z,1032.77
2023-02-12T11:30:02.946Z,1032.71
2023-02-12T11:31:03.017Z,1032.70
2023-02-12T11:32:03.733Z,1032.73
2023-02-12T11:33:02.875Z,1032.72
2023-02-12T11:34:03.000Z,1032.75
2023-02-12T11:35:02.880Z,1032.77
2023-02-12T11:36:05.655Z,1032.74
2023-02-12T11:37:02.885Z,1032.70
2023-02-12T11:38:02.815Z,1032.69
2023-02-12T11:39:02.838Z,1032.71
2023-02-12T11:40:02.796Z,1032.63
2023-02-12T11:41:02.766Z,1032.68
2023-02-12T11:42:02.764Z,1032.66
2023-02-12T11:43:02.777Z,1032.63
2023-02-12T11:44:02.765Z,1032.65
2023-02-12T11:45:02.742Z,1032.65
2023-02-12T11:46:02.827Z,1032.60
2023-02-12T11:47:02.810Z,1032.60
2023-02-12T11:48:02.683Z,1032.60
2023-02-12T11:49:02.681Z,1032.57
2023-02-12T11:50:02.694Z,1032.58
2023-02-12T11:51:02.666Z,1032.55
2023-02-12T11:52:02.726Z,1032.54
2023-02-12T11:53:02.799Z,1032.55
2023-02-12T11:54:02.646Z,1032.57
2023-02-12T11:55:02.592Z,1032.57
2023-02-12T11:56:03.046Z,1032.52
2023-02-12T11:57:02.607Z,1032.56
2023-02-12T11:58:02.620Z,1032.55
2023-02-12T11:59:02.564Z,1032.52
2023-02-12T12:00:02.583Z,1032.49
2023-02-12T12:01:02.537Z,1032.47
2023-02-12T12:02:02.534Z,1032.47
2023-02-12T12:03:03.325Z,1032.50
2023-02-12T12:04:02.590Z,1032.54
2023-02-12T12:05:02.516Z,1032.45